createdAt,value
2016-08-29T00:00:35.447Z,968.31
2016-08-29T00:01:35.966Z,968.22
2016-08-29T00:02:35.953Z,968.17
2016-08-29T00:03:35.312Z,968.13
2016-08-29T00:04:35.840Z,968.1
2016-08-29T00:05:35.876Z,968.1
2016-08-29T00:06:35.807Z,968.07
2016-08-29T00:07:35.244Z,968.16
2016-08-29T00:08:35.776Z,968.16
2016-08-29T00:09:35.747Z,968.17
2016-08-29T00:10:35.180Z,968.17
2016-08-29T00:11:35.676Z,968.15
2016-08-29T00:12:35.637Z,968.08
2016-08-29T00:13:35.625Z,968.09
2016-08-29T00:14:35.042Z,968.16
2016-08-29T00:15:35.160Z,968.16
2016-08-29T00:16:35.530Z,968.2
2016-08-29T00:17:35.026Z,968.21
2016-08-29T00:18:35.496Z,968.24
2016-08-29T00:19:35.432Z,968.27
2016-08-29T00:20:35.224Z,968.26
2016-08-29T00:21:34.846Z,968.28
2016-08-29T00:22:35.374Z,968.32
2016-08-29T00:23:35.341Z,968.34
2016-08-29T00:24:34.738Z,968.32
2016-08-29T00:25:35.085Z,968.31
2016-08-29T00:26:35.229Z,968.31
2016-08-29T00:27:35.220Z,968.31
2016-08-29T00:28:34.571Z,968.31
2016-08-29T00:29:35.141Z,968.3
2016-08-29T00:30:35.036Z,968.29
2016-08-29T00:31:34.482Z,968.32
2016-08-29T00:32:35.068Z,968.3
2016-08-29T00:33:35.021Z,968.36
2016-08-29T00:34:35.011Z,968.36
2016-08-29T00:35:34.444Z,968.33
2016-08-29T00:36:34.865Z,968.31
2016-08-29T00:37:34.918Z,968.29
2016-08-29T00:38:34.277Z,968.29
2016-08-29T00:39:34.784Z,968.27
2016-08-29T00:40:34.792Z,968.29
2016-08-29T00:41:34.582Z,968.32
2016-08-29T00:42:34.155Z,968.28
2016-08-29T00:43:34.696Z,968.29
2016-08-29T00:44:34.667Z,968.31
2016-08-29T00:45:34.201Z,968.33
2016-08-29T00:46:34.454Z,968.35
2016-08-29T00:47:34.393Z,968.34
2016-08-29T00:48:34.581Z,968.36
2016-08-29T00:49:34.000Z,968.38
2016-08-29T00:50:34.526Z,968.39
2016-08-29T00:51:34.455Z,968.41
2016-08-29T00:52:34.363Z,968.45
2016-08-29T00:53:34.410Z,968.47
2016-08-29T00:54:34.380Z,968.48
2016-08-29T00:55:34.359Z,968.48
2016-08-29T00:56:33.760Z,968.44
2016-08-29T00:57:34.291Z,968.44
2016-08-29T00:58:34.008Z,968.5
2016-08-29T00:59:34.148Z,968.53
2016-08-29T01:00:34.223Z,968.54
2016-08-29T01:01:34.212Z,968.48
2016-08-29T01:02:34.121Z,968.43
2016-08-29T01:03:33.550Z,968.39
2016-08-29T01:04:34.073Z,968.38
2016-08-29T01:05:34.051Z,968.34
2016-08-29T01:06:33.792Z,968.36
2016-08-29T01:07:33.486Z,968.32
2016-08-29T01:08:33.982Z,968.29
2016-08-29T01:10:33.396Z,968.3
2016-08-29T01:11:33.861Z,968.29
2016-08-29T01:12:33.845Z,968.31
2016-08-29T01:13:33.817Z,968.31
2016-08-29T01:14:34.095Z,968.34
2016-08-29T01:15:33.778Z,968.33
2016-08-29T01:16:33.730Z,968.35
2016-08-29T01:17:33.114Z,968.32
2016-08-29T01:18:33.686Z,968.29
2016-08-29T01:19:33.635Z,968.23
2016-08-29T01:20:33.532Z,968.21
2016-08-29T01:21:33.033Z,968.2
2016-08-29T01:22:33.377Z,968.21
2016-08-29T01:23:33.551Z,968.24
2016-08-29T01:24:32.955Z,968.21
2016-08-29T01:25:33.403Z,968.23
2016-08-29T01:26:33.422Z,968.2
2016-08-29T01:27:33.218Z,968.17
2016-08-29T01:28:32.823Z,968.13
2016-08-29T01:29:33.370Z,968.14
2016-08-29T01:30:32.828Z,968.11
2016-08-29T01:31:32.735Z,968.06
2016-08-29T01:32:33.269Z,968.05
2016-08-29T01:33:33.220Z,967.99
2016-08-29T01:34:33.207Z,968.05
2016-08-29T01:35:32.653Z,968.03
2016-08-29T01:36:33.072Z,968.04
2016-08-29T01:37:33.092Z,968.05
2016-08-29T01:38:32.525Z,968.06
2016-08-29T01:39:32.988Z,968.06
2016-08-29T01:40:32.983Z,968.1
2016-08-29T01:41:32.977Z,968.13
2016-08-29T01:42:32.367Z,968.11
2016-08-29T01:43:32.925Z,968.14
2016-08-29T01:44:32.704Z,968.14
2016-08-29T01:45:32.281Z,968.15
2016-08-29T01:46:32.858Z,968.14
2016-08-29T01:47:32.747Z,968.15
2016-08-29T01:48:32.769Z,968.12
2016-08-29T01:49:32.230Z,968.16
2016-08-29T01:50:32.721Z,968.19
2016-08-29T01:51:32.677Z,968.19
2016-08-29T01:52:32.119Z,968.17
2016-08-29T01:53:32.632Z,968.19
2016-08-29T01:54:32.437Z,968.2
2016-08-29T01:55:32.504Z,968.19
2016-08-29T01:56:31.971Z,968.2
2016-08-29T01:57:32.493Z,968.22
2016-08-29T01:58:32.410Z,968.29
2016-08-29T01:59:32.048Z,968.28
2016-08-29T02:00:32.211Z,968.34
2016-08-29T02:01:32.365Z,968.35
2016-08-29T02:02:32.361Z,968.4
2016-08-29T02:03:31.821Z,968.36
2016-08-29T02:04:32.300Z,968.38
2016-08-29T02:05:32.254Z,968.36
2016-08-29T02:06:32.144Z,968.34
2016-08-29T02:07:32.209Z,968.37
2016-08-29T02:08:31.586Z,968.35
2016-08-29T02:09:31.558Z,968.34
2016-08-29T02:10:31.527Z,968.3
2016-08-29T02:11:31.497Z,968.27
2016-08-29T02:12:31.468Z,968.25
2016-08-29T02:13:31.437Z,968.16
2016-08-29T02:14:31.406Z,968.22
2016-08-29T02:15:31.378Z,968.21
2016-08-29T02:16:31.346Z,968.23
2016-08-29T02:17:31.315Z,968.27
2016-08-29T02:18:31.288Z,968.28
2016-08-29T02:19:31.258Z,968.28
2016-08-29T02:20:31.227Z,968.29
2016-08-29T02:21:31.198Z,968.25
2016-08-29T02:22:31.168Z,968.24
2016-08-29T02:23:31.137Z,968.24
2016-08-29T02:24:31.108Z,968.21
2016-08-29T02:25:31.075Z,968.24
2016-08-29T02:26:31.045Z,968.2
2016-08-29T02:27:31.016Z,968.17
2016-08-29T02:28:30.987Z,968.19
2016-08-29T02:29:30.954Z,968.18
2016-08-29T02:30:30.928Z,968.12
2016-08-29T02:31:30.896Z,968.17
2016-08-29T02:32:30.866Z,968.18
2016-08-29T02:33:30.836Z,968.16
2016-08-29T02:34:30.808Z,968.2
2016-08-29T02:35:30.776Z,968.18
2016-08-29T02:36:30.748Z,968.13
2016-08-29T02:37:30.717Z,968.11
2016-08-29T02:38:30.687Z,968.14
2016-08-29T02:39:30.657Z,968.19
2016-08-29T02:40:30.626Z,968.22
2016-08-29T02:41:30.596Z,968.26
2016-08-29T02:42:30.567Z,968.24
2016-08-29T02:43:30.536Z,968.28
2016-08-29T02:44:30.510Z,968.28
2016-08-29T02:45:30.477Z,968.28
2016-08-29T02:46:30.446Z,968.3
2016-08-29T02:47:30.423Z,968.35
2016-08-29T02:48:30.387Z,968.39
2016-08-29T02:49:30.357Z,968.39
2016-08-29T02:50:30.325Z,968.41
2016-08-29T02:51:30.296Z,968.39
2016-08-29T02:52:30.265Z,968.4
2016-08-29T02:53:30.237Z,968.34
2016-08-29T02:54:30.206Z,968.4
2016-08-29T02:55:30.178Z,968.37
2016-08-29T02:56:30.146Z,968.37
2016-08-29T02:57:30.118Z,968.36
2016-08-29T02:58:30.087Z,968.38
2016-08-29T02:59:30.056Z,968.32
2016-08-29T03:00:30.026Z,968.32
2016-08-29T03:01:29.997Z,968.34
2016-08-29T03:02:29.966Z,968.31
2016-08-29T03:03:29.938Z,968.3
2016-08-29T03:04:29.906Z,968.3
2016-08-29T03:05:29.877Z,968.28
2016-08-29T03:06:29.844Z,968.33
2016-08-29T03:07:29.816Z,968.35
2016-08-29T03:08:29.787Z,968.39
2016-08-29T03:09:29.757Z,968.39
2016-08-29T03:10:29.726Z,968.36
2016-08-29T03:11:29.696Z,968.42
2016-08-29T03:12:29.668Z,968.43
2016-08-29T03:13:29.636Z,968.44
2016-08-29T03:14:29.605Z,968.43
2016-08-29T03:15:29.578Z,968.41
2016-08-29T03:16:29.547Z,968.39
2016-08-29T03:17:29.516Z,968.45
2016-08-29T03:18:29.487Z,968.41
2016-08-29T03:19:29.458Z,968.44
2016-08-29T03:20:29.429Z,968.44
2016-08-29T03:21:29.398Z,968.41
2016-08-29T03:22:29.372Z,968.46
2016-08-29T03:23:29.339Z,968.45
2016-08-29T03:24:29.308Z,968.43
2016-08-29T03:25:29.279Z,968.47
2016-08-29T03:26:29.249Z,968.45
2016-08-29T03:27:29.219Z,968.47
2016-08-29T03:28:29.187Z,968.49
2016-08-29T03:29:29.161Z,968.48
2016-08-29T03:30:29.129Z,968.5
2016-08-29T03:31:29.098Z,968.51
2016-08-29T03:32:29.067Z,968.48
2016-08-29T03:33:29.040Z,968.48
2016-08-29T03:34:29.012Z,968.47
2016-08-29T03:35:28.978Z,968.49
2016-08-29T03:36:28.947Z,968.43
2016-08-29T03:37:28.918Z,968.44
2016-08-29T03:38:28.888Z,968.43
2016-08-29T03:39:28.860Z,968.41
2016-08-29T03:40:28.831Z,968.41
2016-08-29T03:41:28.800Z,968.42
2016-08-29T03:42:28.769Z,968.49
2016-08-29T03:43:28.738Z,968.48
2016-08-29T03:44:28.709Z,968.46
2016-08-29T03:45:28.680Z,968.48
2016-08-29T03:46:28.650Z,968.5
2016-08-29T03:47:28.619Z,968.52
2016-08-29T03:48:28.592Z,968.57
2016-08-29T03:49:28.560Z,968.6
2016-08-29T03:50:28.528Z,968.61
2016-08-29T03:51:28.506Z,968.65
2016-08-29T03:52:28.468Z,968.64
2016-08-29T03:53:28.439Z,968.63
2016-08-29T03:54:28.408Z,968.69
2016-08-29T03:55:28.379Z,968.72
2016-08-29T03:56:28.350Z,968.73
2016-08-29T03:57:28.319Z,968.71
2016-08-29T03:58:28.300Z,968.65
2016-08-29T03:59:28.258Z,968.63
2016-08-29T04:00:28.228Z,968.64
2016-08-29T04:01:28.196Z,968.62
2016-08-29T04:02:28.166Z,968.66
2016-08-29T04:03:28.138Z,968.68
2016-08-29T04:04:28.107Z,968.68
2016-08-29T04:05:28.075Z,968.69
2016-08-29T04:06:28.046Z,968.7
2016-08-29T04:07:28.017Z,968.73
2016-08-29T04:08:27.984Z,968.72
2016-08-29T04:09:27.955Z,968.71
2016-08-29T04:10:27.927Z,968.69
2016-08-29T04:11:27.895Z,968.74
2016-08-29T04:12:27.865Z,968.77
2016-08-29T04:13:27.833Z,968.76
2016-08-29T04:14:27.809Z,968.78
2016-08-29T04:15:27.774Z,968.77
2016-08-29T04:16:27.743Z,968.76
2016-08-29T04:17:27.713Z,968.75
2016-08-29T04:18:27.683Z,968.71
2016-08-29T04:19:27.653Z,968.64
2016-08-29T04:20:27.624Z,968.56
2016-08-29T04:21:27.594Z,968.57
2016-08-29T04:22:27.564Z,968.58
2016-08-29T04:23:27.532Z,968.58
2016-08-29T04:24:27.502Z,968.59
2016-08-29T04:25:27.475Z,968.63
2016-08-29T04:26:27.444Z,968.59
2016-08-29T04:27:27.413Z,968.62
2016-08-29T04:28:27.384Z,968.6
2016-08-29T04:29:27.354Z,968.53
2016-08-29T04:30:27.322Z,968.53
2016-08-29T04:31:27.292Z,968.53
2016-08-29T04:32:27.263Z,968.5
2016-08-29T04:33:27.232Z,968.55
2016-08-29T04:34:27.202Z,968.57
2016-08-29T04:35:27.173Z,968.54
2016-08-29T04:36:27.142Z,968.58
2016-08-29T04:37:27.112Z,968.52
2016-08-29T04:38:27.082Z,968.52
2016-08-29T04:39:27.054Z,968.53
2016-08-29T04:40:27.025Z,968.56
2016-08-29T04:41:26.993Z,968.6
2016-08-29T04:42:26.962Z,968.6
2016-08-29T04:43:26.934Z,968.62
2016-08-29T04:44:26.904Z,968.66
2016-08-29T04:45:26.873Z,968.71
2016-08-29T04:46:26.844Z,968.69
2016-08-29T04:47:26.813Z,968.68
2016-08-29T04:48:26.784Z,968.71
2016-08-29T04:49:26.753Z,968.75
2016-08-29T04:50:26.725Z,968.78
2016-08-29T04:51:26.694Z,968.82
2016-08-29T04:52:26.663Z,968.84
2016-08-29T04:53:26.634Z,968.87
2016-08-29T04:54:26.604Z,968.93
2016-08-29T04:55:26.575Z,968.98
2016-08-29T04:56:26.548Z,969.01
2016-08-29T04:57:26.517Z,969.03
2016-08-29T04:58:26.488Z,969.06
2016-08-29T04:59:26.460Z,969.05
2016-08-29T05:00:26.431Z,969.1
2016-08-29T05:01:26.398Z,969.11
2016-08-29T05:02:26.367Z,969.14
2016-08-29T05:03:26.335Z,969.2
2016-08-29T05:04:26.307Z,969.26
2016-08-29T05:05:26.277Z,969.27
2016-08-29T05:06:26.247Z,969.24
2016-08-29T05:07:26.217Z,969.21
2016-08-29T05:08:26.187Z,969.16
2016-08-29T05:09:26.157Z,969.13
2016-08-29T05:10:26.126Z,969.11
2016-08-29T05:11:26.096Z,969.1
2016-08-29T05:12:26.067Z,969.09
2016-08-29T05:13:26.037Z,969.15
2016-08-29T05:14:26.011Z,969.19
2016-08-29T05:15:25.978Z,969.15
2016-08-29T05:16:25.955Z,969.2
2016-08-29T05:17:25.917Z,969.21
2016-08-29T05:18:25.887Z,969.18
2016-08-29T05:19:25.856Z,969.19
2016-08-29T05:20:25.827Z,969.18
2016-08-29T05:21:25.795Z,969.18
2016-08-29T05:22:25.766Z,969.19
2016-08-29T05:23:25.736Z,969.19
2016-08-29T05:24:25.708Z,969.21
2016-08-29T05:25:25.676Z,969.21
2016-08-29T05:26:25.649Z,969.19
2016-08-29T05:27:25.616Z,969.21
2016-08-29T05:28:25.586Z,969.26
2016-08-29T05:29:25.556Z,969.23
2016-08-29T05:30:25.527Z,969.26
2016-08-29T05:31:25.499Z,969.23
2016-08-29T05:32:25.467Z,969.21
2016-08-29T05:33:25.440Z,969.25
2016-08-29T05:34:25.408Z,969.28
2016-08-29T05:35:25.378Z,969.27
2016-08-29T05:36:25.348Z,969.19
2016-08-29T05:37:25.317Z,969.17
2016-08-29T05:38:25.297Z,969.14
2016-08-29T05:39:25.260Z,969.05
2016-08-29T05:40:25.228Z,969.04
2016-08-29T05:41:25.201Z,969.05
2016-08-29T05:42:25.170Z,969.03
2016-08-29T05:43:25.138Z,969.08
2016-08-29T05:44:25.107Z,969.15
2016-08-29T05:45:25.080Z,969.14
2016-08-29T05:46:25.052Z,969.16
2016-08-29T05:47:25.020Z,969.16
2016-08-29T05:48:24.990Z,969.16
2016-08-29T05:49:24.959Z,969.15
2016-08-29T05:50:24.929Z,969.2
2016-08-29T05:51:24.898Z,969.2
2016-08-29T05:52:24.869Z,969.27
2016-08-29T05:53:24.841Z,969.25
2016-08-29T05:54:24.810Z,969.25
2016-08-29T05:55:24.778Z,969.23
2016-08-29T05:56:24.750Z,969.24
2016-08-29T05:57:24.720Z,969.21
2016-08-29T05:58:24.690Z,969.2
2016-08-29T05:59:24.659Z,969.12
2016-08-29T06:00:24.630Z,969.11
2016-08-29T06:01:24.598Z,969.12
2016-08-29T06:02:24.568Z,969.09
2016-08-29T06:03:24.540Z,969.12
2016-08-29T06:04:24.509Z,969.12
2016-08-29T06:05:24.477Z,969.15
2016-08-29T06:06:24.447Z,969.14
2016-08-29T06:07:24.419Z,969.16
2016-08-29T06:08:24.388Z,969.15
2016-08-29T06:09:24.360Z,969.21
2016-08-29T06:10:24.568Z,969.22
2016-08-29T06:11:24.299Z,969.27
2016-08-29T06:12:24.266Z,969.28
2016-08-29T06:13:24.237Z,969.3
2016-08-29T06:14:24.207Z,969.27
2016-08-29T06:15:24.177Z,969.3
2016-08-29T06:16:24.148Z,969.25
2016-08-29T06:17:24.117Z,969.31
2016-08-29T06:18:24.088Z,969.27
2016-08-29T06:19:24.056Z,969.3
2016-08-29T06:20:24.027Z,969.32
2016-08-29T06:21:23.997Z,969.29
2016-08-29T06:22:23.965Z,969.24
2016-08-29T06:23:23.935Z,969.23
2016-08-29T06:24:23.904Z,969.21
2016-08-29T06:25:23.876Z,969.25
2016-08-29T06:26:23.845Z,969.27
2016-08-29T06:27:23.815Z,969.26
2016-08-29T06:28:23.785Z,969.32
2016-08-29T06:29:23.754Z,969.28
2016-08-29T06:30:23.725Z,969.32
2016-08-29T06:31:23.694Z,969.35
2016-08-29T06:32:23.665Z,969.34
2016-08-29T06:33:23.637Z,969.39
2016-08-29T06:34:23.613Z,969.38
2016-08-29T06:35:23.575Z,969.39
2016-08-29T06:36:23.544Z,969.44
2016-08-29T06:37:23.514Z,969.43
2016-08-29T06:38:23.483Z,969.47
2016-08-29T06:39:23.453Z,969.49
2016-08-29T06:40:23.994Z,969.54
2016-08-29T06:41:23.395Z,969.54
2016-08-29T06:42:23.364Z,969.53
2016-08-29T06:43:23.336Z,969.54
2016-08-29T06:44:23.306Z,969.6
2016-08-29T06:45:23.274Z,969.63
2016-08-29T06:46:23.243Z,969.63
2016-08-29T06:47:23.213Z,969.66
2016-08-29T06:48:23.186Z,969.6
2016-08-29T06:49:23.155Z,969.65
2016-08-29T06:50:23.124Z,969.62
2016-08-29T06:51:23.095Z,969.64
2016-08-29T06:52:23.065Z,969.61
2016-08-29T06:53:23.034Z,969.61
2016-08-29T06:54:23.006Z,969.62
2016-08-29T06:55:22.976Z,969.6
2016-08-29T06:56:22.945Z,969.6
2016-08-29T06:57:22.916Z,969.65
2016-08-29T06:58:22.889Z,969.66
2016-08-29T06:59:22.858Z,969.69
2016-08-29T07:00:22.826Z,969.74
2016-08-29T07:01:22.799Z,969.76
2016-08-29T07:02:22.768Z,969.78
2016-08-29T07:03:22.738Z,969.86
2016-08-29T07:04:22.708Z,969.89
2016-08-29T07:05:22.681Z,969.98
2016-08-29T07:06:22.651Z,970.02
2016-08-29T07:07:22.619Z,970.06
2016-08-29T07:08:22.591Z,970.11
2016-08-29T07:09:22.561Z,970.14
2016-08-29T07:10:22.533Z,970.18
2016-08-29T07:11:22.502Z,970.16
2016-08-29T07:12:22.474Z,970.09
2016-08-29T07:13:22.444Z,970
2016-08-29T07:14:22.417Z,969.96
2016-08-29T07:15:22.387Z,969.92
2016-08-29T07:16:22.356Z,969.89
2016-08-29T07:17:22.325Z,969.88
2016-08-29T07:18:22.298Z,969.88
2016-08-29T07:19:22.265Z,969.86
2016-08-29T07:20:22.245Z,969.9
2016-08-29T07:21:22.228Z,969.92
2016-08-29T07:22:22.177Z,969.95
2016-08-29T07:23:22.147Z,970
2016-08-29T07:24:22.118Z,970.05
2016-08-29T07:25:22.089Z,970.1
2016-08-29T07:26:22.059Z,970.07
2016-08-29T07:27:22.030Z,970.05
2016-08-29T07:28:21.998Z,970.06
2016-08-29T07:29:21.969Z,970.04
2016-08-29T07:30:21.939Z,969.98
2016-08-29T07:31:21.910Z,969.97
2016-08-29T07:32:21.880Z,969.96
2016-08-29T07:33:21.849Z,969.96
2016-08-29T07:34:21.820Z,969.98
2016-08-29T07:35:21.792Z,970.02
2016-08-29T07:36:21.761Z,970.03
2016-08-29T07:37:21.733Z,970.1
2016-08-29T07:38:21.702Z,970.11
2016-08-29T07:39:21.674Z,970.14
2016-08-29T07:40:21.644Z,970.1
2016-08-29T07:41:21.615Z,970.15
2016-08-29T07:42:21.585Z,970.14
2016-08-29T07:43:21.556Z,970.17
2016-08-29T07:44:21.527Z,970.13
2016-08-29T07:45:21.497Z,970.18
2016-08-29T07:46:21.466Z,970.15
2016-08-29T07:47:21.436Z,970.16
2016-08-29T07:48:21.408Z,970.2
2016-08-29T07:49:21.380Z,970.2
2016-08-29T07:50:21.350Z,970.2
2016-08-29T07:51:21.319Z,970.24
2016-08-29T07:52:21.292Z,970.21
2016-08-29T07:53:21.264Z,970.27
2016-08-29T07:54:21.234Z,970.26
2016-08-29T07:55:21.204Z,970.3
2016-08-29T07:56:21.176Z,970.3
2016-08-29T07:57:21.147Z,970.28
2016-08-29T07:58:21.120Z,970.31
2016-08-29T07:59:21.088Z,970.29
2016-08-29T08:00:21.060Z,970.3
2016-08-29T08:01:21.032Z,970.33
2016-08-29T08:02:21.000Z,970.28
2016-08-29T08:03:20.974Z,970.3
2016-08-29T08:04:20.947Z,970.3
2016-08-29T08:05:20.916Z,970.29
2016-08-29T08:06:20.888Z,970.36
2016-08-29T08:07:20.861Z,970.35
2016-08-29T08:08:20.831Z,970.39
2016-08-29T08:09:20.802Z,970.38
2016-08-29T08:10:20.773Z,970.4
2016-08-29T08:11:20.747Z,970.42
2016-08-29T08:12:20.718Z,970.44
2016-08-29T08:13:20.690Z,970.47
2016-08-29T08:14:20.660Z,970.43
2016-08-29T08:15:20.631Z,970.46
2016-08-29T08:16:20.601Z,970.52
2016-08-29T08:17:20.576Z,970.51
2016-08-29T08:18:20.545Z,970.53
2016-08-29T08:19:20.515Z,970.5
2016-08-29T08:20:20.486Z,970.53
2016-08-29T08:21:20.457Z,970.56
2016-08-29T08:22:20.429Z,970.58
2016-08-29T08:23:20.399Z,970.59
2016-08-29T08:24:20.372Z,970.58
2016-08-29T08:25:20.344Z,970.6
2016-08-29T08:26:20.315Z,970.58
2016-08-29T08:27:20.283Z,970.68
2016-08-29T08:28:20.255Z,970.65
2016-08-29T08:29:20.227Z,970.69
2016-08-29T08:30:20.203Z,970.66
2016-08-29T08:31:20.168Z,970.71
2016-08-29T08:32:20.141Z,970.69
2016-08-29T08:33:20.111Z,970.72
2016-08-29T08:34:20.081Z,970.75
2016-08-29T08:35:20.053Z,970.72
2016-08-29T08:36:20.026Z,970.7
2016-08-29T08:37:19.997Z,970.72
2016-08-29T08:38:19.966Z,970.69
2016-08-29T08:39:19.938Z,970.72
2016-08-29T08:40:19.905Z,970.67
2016-08-29T08:41:19.882Z,970.69
2016-08-29T08:42:19.847Z,970.66
2016-08-29T08:43:19.820Z,970.66
2016-08-29T08:44:19.794Z,970.68
2016-08-29T08:45:19.761Z,970.67
2016-08-29T08:46:19.729Z,970.7
2016-08-29T08:47:19.702Z,970.68
2016-08-29T08:48:19.672Z,970.71
2016-08-29T08:49:19.642Z,970.67
2016-08-29T08:50:19.611Z,970.66
2016-08-29T08:51:19.582Z,970.64
2016-08-29T08:52:19.581Z,970.66
2016-08-29T08:53:19.525Z,970.69
2016-08-29T08:54:19.494Z,970.64
2016-08-29T08:55:19.466Z,970.7
2016-08-29T08:56:19.435Z,970.68
2016-08-29T08:57:19.405Z,970.68
2016-08-29T08:58:19.376Z,970.71
2016-08-29T08:59:19.349Z,970.63
2016-08-29T09:00:19.317Z,970.65
2016-08-29T09:01:19.287Z,970.67
2016-08-29T09:02:19.261Z,970.66
2016-08-29T09:03:19.231Z,970.66
2016-08-29T09:04:19.198Z,970.65
2016-08-29T09:05:19.170Z,970.64
2016-08-29T09:06:19.142Z,970.7
2016-08-29T09:07:19.112Z,970.79
2016-08-29T09:08:19.081Z,970.86
2016-08-29T09:09:19.051Z,971.12
2016-08-29T09:10:19.020Z,971.02
2016-08-29T09:11:19.006Z,970.87
2016-08-29T09:12:18.965Z,970.86
2016-08-29T09:13:18.935Z,971.2
2016-08-29T09:14:18.907Z,971.18
2016-08-29T09:15:18.879Z,971.25
2016-08-29T09:16:18.854Z,971.01
2016-08-29T09:17:18.824Z,970.85
2016-08-29T09:18:18.797Z,970.78
2016-08-29T09:19:18.769Z,970.8
2016-08-29T09:20:18.743Z,970.83
2016-08-29T09:21:18.719Z,970.78
2016-08-29T09:22:18.691Z,970.8
2016-08-29T09:23:18.664Z,970.85
2016-08-29T09:24:18.640Z,970.82
2016-08-29T09:25:18.610Z,970.86
2016-08-29T09:26:18.582Z,970.83
2016-08-29T09:27:18.561Z,970.75
2016-08-29T09:28:18.532Z,970.8
2016-08-29T09:29:18.504Z,970.82
2016-08-29T09:30:18.475Z,970.83
2016-08-29T09:31:18.451Z,970.81
2016-08-29T09:32:18.424Z,970.86
2016-08-29T09:33:18.397Z,970.81
2016-08-29T09:34:18.369Z,970.82
2016-08-29T09:35:18.343Z,970.81
2016-08-29T09:36:18.317Z,970.79
2016-08-29T09:37:18.290Z,970.76
2016-08-29T09:38:18.261Z,970.77
2016-08-29T09:39:18.235Z,970.79
2016-08-29T09:40:18.209Z,970.83
2016-08-29T09:41:18.188Z,970.85
2016-08-29T09:42:18.154Z,970.81
2016-08-29T09:43:18.127Z,970.82
2016-08-29T09:44:18.107Z,970.84
2016-08-29T09:45:18.074Z,970.85
2016-08-29T09:46:18.045Z,970.85
2016-08-29T09:47:18.018Z,970.87
2016-08-29T09:48:17.991Z,970.84
2016-08-29T09:49:17.963Z,970.84
2016-08-29T09:50:17.936Z,970.82
2016-08-29T09:51:17.905Z,970.88
2016-08-29T09:52:17.879Z,970.86
2016-08-29T09:53:17.852Z,970.83
2016-08-29T09:54:17.825Z,970.78
2016-08-29T09:55:17.795Z,970.76
2016-08-29T09:56:17.767Z,970.72
2016-08-29T09:57:17.739Z,970.76
2016-08-29T09:58:17.711Z,970.78
2016-08-29T09:59:17.682Z,970.72
2016-08-29T10:00:17.656Z,970.75
2016-08-29T10:01:17.628Z,970.75
2016-08-29T10:02:17.597Z,970.75
2016-08-29T10:03:17.569Z,970.77
2016-08-29T10:04:17.541Z,970.73
2016-08-29T10:05:17.511Z,970.75
2016-08-29T10:06:17.489Z,970.72
2016-08-29T10:07:17.456Z,970.76
2016-08-29T10:08:17.428Z,970.74
2016-08-29T10:09:17.398Z,970.75
2016-08-29T10:10:17.368Z,970.68
2016-08-29T10:11:17.340Z,970.71
2016-08-29T10:12:17.311Z,970.71
2016-08-29T10:13:17.282Z,970.65
2016-08-29T10:14:17.255Z,970.66
2016-08-29T10:15:17.226Z,970.65
2016-08-29T10:16:17.195Z,970.64
2016-08-29T10:17:17.166Z,970.62
2016-08-29T10:18:17.138Z,970.67
2016-08-29T10:19:17.110Z,970.66
2016-08-29T10:20:17.081Z,970.67
2016-08-29T10:21:17.050Z,970.67
2016-08-29T10:22:17.021Z,970.61
2016-08-29T10:23:16.998Z,970.64
2016-08-29T10:24:16.961Z,970.62
2016-08-29T10:25:16.934Z,970.62
2016-08-29T10:26:16.904Z,970.67
2016-08-29T10:27:16.874Z,970.61
2016-08-29T10:28:16.847Z,970.66
2016-08-29T10:29:16.818Z,970.65
2016-08-29T10:30:16.786Z,970.63
2016-08-29T10:31:16.760Z,970.65
2016-08-29T10:32:16.733Z,970.58
2016-08-29T10:33:16.700Z,970.61
2016-08-29T10:34:16.673Z,970.63
2016-08-29T10:35:16.640Z,970.59
2016-08-29T10:36:16.618Z,970.51
2016-08-29T10:37:16.582Z,970.52
2016-08-29T10:38:16.554Z,970.52
2016-08-29T10:39:16.526Z,970.54
2016-08-29T10:40:16.493Z,970.56
2016-08-29T10:41:16.465Z,970.6
2016-08-29T10:42:16.435Z,970.65
2016-08-29T10:43:16.407Z,970.68
2016-08-29T10:44:16.376Z,970.64
2016-08-29T10:45:16.357Z,970.71
2016-08-29T10:46:16.316Z,970.7
2016-08-29T10:47:16.292Z,970.67
2016-08-29T10:48:16.258Z,970.67
2016-08-29T10:49:16.230Z,970.68
2016-08-29T10:50:16.199Z,970.68
2016-08-29T10:51:16.169Z,970.67
2016-08-29T10:52:16.142Z,970.7
2016-08-29T10:53:16.111Z,970.72
2016-08-29T10:54:16.080Z,970.67
2016-08-29T10:55:16.050Z,970.66
2016-08-29T10:56:16.023Z,970.69
2016-08-29T10:57:15.989Z,970.74
2016-08-29T10:58:15.962Z,970.73
2016-08-29T10:59:15.930Z,970.75
2016-08-29T11:00:15.902Z,970.76
2016-08-29T11:01:15.877Z,970.78
2016-08-29T11:02:15.842Z,970.76
2016-08-29T11:03:15.812Z,970.75
2016-08-29T11:04:15.783Z,970.73
2016-08-29T11:05:15.752Z,970.71
2016-08-29T11:06:15.721Z,970.73
2016-08-29T11:07:15.693Z,970.75
2016-08-29T11:08:15.664Z,970.74
2016-08-29T11:09:15.634Z,970.74
2016-08-29T11:10:15.603Z,970.69
2016-08-29T11:11:15.572Z,970.68
2016-08-29T11:12:15.541Z,970.69
2016-08-29T11:13:15.525Z,970.73
2016-08-29T11:14:15.482Z,970.74
2016-08-29T11:15:15.454Z,970.74
2016-08-29T11:16:15.424Z,970.74
2016-08-29T11:17:15.396Z,970.73
2016-08-29T11:18:15.364Z,970.72
2016-08-29T11:19:15.338Z,970.75
2016-08-29T11:20:15.304Z,970.71
2016-08-29T11:21:15.275Z,970.75
2016-08-29T11:22:15.245Z,970.71
2016-08-29T11:23:15.216Z,970.72
2016-08-29T11:24:15.188Z,970.74
2016-08-29T11:25:15.157Z,970.73
2016-08-29T11:26:15.126Z,970.76
2016-08-29T11:27:15.100Z,970.77
2016-08-29T11:28:15.075Z,970.74
2016-08-29T11:29:15.040Z,970.73
2016-08-29T11:30:15.008Z,970.68
2016-08-29T11:31:14.979Z,970.63
2016-08-29T11:32:14.951Z,970.62
2016-08-29T11:33:14.921Z,970.64
2016-08-29T11:34:14.891Z,970.69
2016-08-29T11:35:14.860Z,970.69
2016-08-29T11:36:14.833Z,970.67
2016-08-29T11:37:14.803Z,970.68
2016-08-29T11:38:14.773Z,970.74
2016-08-29T11:39:14.745Z,970.79
2016-08-29T11:40:14.715Z,970.74
2016-08-29T11:41:14.685Z,970.75
2016-08-29T11:42:14.656Z,970.75
2016-08-29T11:43:14.625Z,970.78
2016-08-29T11:44:14.599Z,970.78
2016-08-29T11:45:14.567Z,970.87
2016-08-29T11:46:14.539Z,970.95
2016-08-29T11:47:14.509Z,970.93
2016-08-29T11:48:14.482Z,970.96
2016-08-29T11:49:14.452Z,970.9
2016-08-29T11:50:14.505Z,970.84
2016-08-29T11:51:14.394Z,970.79
2016-08-29T11:52:14.366Z,970.81
2016-08-29T11:53:14.336Z,970.79
2016-08-29T11:54:14.307Z,970.88
2016-08-29T11:55:14.282Z,970.76
2016-08-29T11:56:14.251Z,970.8
2016-08-29T11:57:14.222Z,970.83
2016-08-29T11:58:14.197Z,970.84
2016-08-29T11:59:14.166Z,970.85
2016-08-29T12:00:14.140Z,970.88
2016-08-29T12:01:14.113Z,970.82
2016-08-29T12:02:14.083Z,970.8
2016-08-29T12:03:14.056Z,970.77
2016-08-29T12:04:14.028Z,970.73
2016-08-29T12:05:14.001Z,970.74
2016-08-29T12:06:13.975Z,970.71
2016-08-29T12:07:13.946Z,970.73
2016-08-29T12:08:13.919Z,970.7
2016-08-29T12:09:13.893Z,970.72
2016-08-29T12:10:13.865Z,970.68
2016-08-29T12:11:13.837Z,970.67
2016-08-29T12:12:13.808Z,970.68
2016-08-29T12:13:13.782Z,970.71
2016-08-29T12:14:13.752Z,970.7
2016-08-29T12:15:13.895Z,970.75
2016-08-29T12:16:13.698Z,970.75
2016-08-29T12:17:13.671Z,970.72
2016-08-29T12:18:13.643Z,970.72
2016-08-29T12:19:13.617Z,970.69
2016-08-29T12:20:13.589Z,970.73
2016-08-29T12:21:13.561Z,970.7
2016-08-29T12:22:13.534Z,970.73
2016-08-29T12:23:13.504Z,970.73
2016-08-29T12:24:13.479Z,970.69
2016-08-29T12:25:13.449Z,970.76
2016-08-29T12:26:13.421Z,970.7
2016-08-29T12:27:13.394Z,970.64
2016-08-29T12:28:13.367Z,970.69
2016-08-29T12:29:13.337Z,970.7
2016-08-29T12:30:13.313Z,970.69
2016-08-29T12:31:13.284Z,970.64
2016-08-29T12:32:13.256Z,970.68